Terminal Aerodrome Forecast
Issued by NWS

Home | Current Version | Previous Version | Text Only | Print | Product List | Glossary On
Versions: 1 2 3 4 5 6 7 8 9 10 11 12 13 14 15 16 17 18 19 20 21 22 23 24 25 26 27 28 29 30
000
FTUS45 KABQ 231700
TAFROW
TAF
KROW 231724Z 2318/2418 12005KT 6SM BR SCT006
     FM232000 21005KT P6SM SKC
     FM240900 30005KT 4SM BR SCT002
     FM241100 30005KT 2SM BR SCT001
     FM241400 30005KT 4SM BR SCT001
     FM241600 15005KT P6SM SKC=

USA.gov is the U.S. government's official web portal to all federal, state and local government web resources and services.